Tinkerbell Mar — 9HBA9 — position and weather

sailwx.info

Track history (hours):
 
Tides and Currents Weather Stations Pressure Air Temp Water Temp Dewpoint Dewpoint Depression Visibility Wind Speed Wind Dir Waves Ship Positions

Tinkerbell Mar

Last reported at 2017-Sep-22 01:59 UTC. Time now 2017-Sep-24 17:48 UTC.
Position N 37°54' E 023°33'.

Length 102 m; draft 4.7 m.

Type: Ship. MMSI: 256707000.

Date/timePositionNaut miles runAvg speedWind from/ knotsBaromVisibWave heightAir tempDewpointWater temp
2017-Sep-22 01:59N 37°54' E 023°33'0 0.0
2017-Sep-22 01:29N 37°54' E 023°33'0 0.0
2017-Sep-22 00:59N 37°54' E 023°33'0 0.0
2017-Sep-22 00:29N 37°54' E 023°33'0 0.0
2017-Sep-21 23:59N 37°54' E 023°33'0 0.1
2017-Sep-21 23:29N 37°54' E 023°33'0 0.0
2017-Sep-21 22:59N 37°54' E 023°33'0 0.1
2017-Sep-21 22:23N 37°54' E 023°33'0 0.0
2017-Sep-21 21:59N 37°54' E 023°33'0 0.2
2017-Sep-21 21:29N 37°54' E 023°33'0 0.0
2017-Sep-21 20:59N 37°54' E 023°33'0 0.1
2017-Sep-21 20:29N 37°54' E 023°33'0 0.0
2017-Sep-21 19:59N 37°54' E 023°33'0 0.1
2017-Sep-21 19:29N 37°54' E 023°33'0 0.0
2017-Sep-21 18:59N 37°54' E 023°33'0 0.0
2017-Sep-21 18:29N 37°54' E 023°33'0 0.0
2017-Sep-21 17:59N 37°54' E 023°33'0 0.0
2017-Sep-21 17:29N 37°54' E 023°33'0 0.1
2017-Sep-21 16:59N 37°54' E 023°33'0 0.1
2017-Sep-21 16:29N 37°54' E 023°33'0 0.3
2017-Sep-21 15:56N 37°54' E 023°33'0 0.1
2017-Sep-21 15:29N 37°54' E 023°33'0 0.1
2017-Sep-21 14:59N 37°54' E 023°33'0 0.1
2017-Sep-21 14:29N 37°54' E 023°33'0 0.1
2017-Sep-21 13:59N 37°54' E 023°33'0 0.0
2017-Sep-21 13:29N 37°54' E 023°33'0 0.1
2017-Sep-21 12:59N 37°54' E 023°33'0 0.0
2017-Sep-21 12:29N 37°54' E 023°33'0 0.0
2017-Sep-21 11:59N 37°54' E 023°33'0 0.0
2017-Sep-21 11:29N 37°54' E 023°33'0 0.0
2017-Sep-21 10:59N 37°54' E 023°33'0 0.0
2017-Sep-21 10:29N 37°54' E 023°33'0 0.1
2017-Sep-21 09:59N 37°54' E 023°33'0 0.1
2017-Sep-21 09:29N 37°54' E 023°33'0 0.2
2017-Sep-21 09:00N 37°54' E 023°33'0 0.7
2017-Sep-21 08:30N 37°54' E 023°33'0 0.1
2017-Sep-21 08:00N 37°54' E 023°33'0 0.1
2017-Sep-21 07:30N 37°54' E 023°33'0 0.1
2017-Sep-21 07:00N 37°54' E 023°33'0 0.0
2017-Sep-21 06:30N 37°54' E 023°33'0 0.0
2017-Sep-21 06:00N 37°54' E 023°33'1 1.2
2017-Sep-21 05:31N 37°54' E 023°33'4 8.0
2017-Sep-21 05:00N 37°51' E 023°37'510.6
2017-Sep-21 04:31N 37°47' E 023°41'612.5
2017-Sep-21 04:00N 37°42' E 023°45'612.6
2017-Sep-21 03:31N 37°37' E 023°50'9 0.8
2017-Sep-20 16:08N 37°32' E 023°60'2 1.8
2017-Sep-20 15:13N 37°30' E 024°00'24 2.2
2017-Sep-20 04:16N 37°12' E 024°20'0 1.0
2017-Sep-20 03:53N 37°11' E 024°19'1 1.0
2017-Sep-20 03:05N 37°11' E 024°19'0 1.1
2017-Sep-20 02:59N 37°11' E 024°19'0 0.9
2017-Sep-20 02:30N 37°10' E 024°18'0 0.7
2017-Sep-20 02:00N 37°10' E 024°18'0 0.5
2017-Sep-20 01:30N 37°10' E 024°18'0 0.5
2017-Sep-20 01:00N 37°10' E 024°18'0 0.8
2017-Sep-20 00:30N 37°09' E 024°18'0 0.9
2017-Sep-20 00:00N 37°09' E 024°18'0 0.9
2017-Sep-19 23:31N 37°08' E 024°17'0 0.9
2017-Sep-19 23:01N 37°08' E 024°17'0 0.8
2017-Sep-19 22:30N 37°08' E 024°17'0 0.6
2017-Sep-19 22:00N 37°07' E 024°17'0 0.6
2017-Sep-19 21:30N 37°07' E 024°17'0 0.6
2017-Sep-19 21:00N 37°07' E 024°17'5 5.2
2017-Sep-19 20:02N 37°05' E 024°23'0 0.7
2017-Sep-19 19:50N 37°05' E 024°23'1 0.7
2017-Sep-19 19:06N 37°04' E 024°23'0 0.7
2017-Sep-19 19:00N 37°04' E 024°23'0 0.8
2017-Sep-19 18:30N 37°04' E 024°23'1 0.7
2017-Sep-19 17:21N 37°03' E 024°24'0 0.5
2017-Sep-19 17:00N 37°03' E 024°24'0 0.4
2017-Sep-19 16:23N 37°03' E 024°24'0 0.3
2017-Sep-19 15:52N 37°02' E 024°24'0 0.3
2017-Sep-19 15:30N 37°02' E 024°24'0 0.3
2017-Sep-19 14:46N 37°02' E 024°24'0 0.2
2017-Sep-19 14:31N 37°02' E 024°24'0 0.2
2017-Sep-19 14:00N 37°02' E 024°24'0 0.2
2017-Sep-19 13:30N 37°02' E 024°24'0 0.3
2017-Sep-19 12:54N 37°02' E 024°23'0 0.5
2017-Sep-19 12:31N 37°02' E 024°23'0 0.6
2017-Sep-19 12:00N 37°03' E 024°23'0 0.6
2017-Sep-19 11:30N 37°03' E 024°23'0 0.6
2017-Sep-19 11:00N 37°03' E 024°23'0 0.5
2017-Sep-19 10:01N 37°04' E 024°23'0 0.6
2017-Sep-19 10:00N 37°04' E 024°23'2 0.6
2017-Sep-19 06:47N 37°05' E 024°21'0 0.8
2017-Sep-19 06:29N 37°06' E 024°21'0 0.7
2017-Sep-19 06:00N 37°06' E 024°21'0 0.7
2017-Sep-19 05:30N 37°06' E 024°21'1 0.7
2017-Sep-19 04:02N 37°07' E 024°21'0 0.6
2017-Sep-19 04:00N 37°07' E 024°21'0 0.7
2017-Sep-19 03:30N 37°08' E 024°21'0 0.8
2017-Sep-19 03:00N 37°08' E 024°20'1 0.8
2017-Sep-19 01:52N 37°09' E 024°20'0 0.8
2017-Sep-19 01:30N 37°09' E 024°20'1 0.7
2017-Sep-18 23:48N 37°10' E 024°20'0 0.6
2017-Sep-18 23:22N 37°11' E 024°20'0 0.6
2017-Sep-18 23:00N 37°11' E 024°19'1 0.5
2017-Sep-18 21:10N 37°12' E 024°19'0 0.6
2017-Sep-18 21:00N 37°12' E 024°19'0 0.6
2017-Sep-18 20:18N 37°12' E 024°19'1 0.6
2017-Sep-18 19:26N 37°13' E 024°19'0 0.7
2017-Sep-18 18:58N 37°13' E 024°18'0 0.7
2017-Sep-18 18:31N 37°13' E 024°18'0 0.6
2017-Sep-18 17:59N 37°13' E 024°18'0 0.5
2017-Sep-18 17:31N 37°13' E 024°18'0 0.4
2017-Sep-18 17:00N 37°13' E 024°17'0 0.3
2017-Sep-18 16:30N 37°14' E 024°17'0 0.3
2017-Sep-18 15:59N 37°14' E 024°17'0 0.2
2017-Sep-18 15:30N 37°14' E 024°17'0 0.1
2017-Sep-18 14:58N 37°14' E 024°17'0 0.1
2017-Sep-18 14:17N 37°14' E 024°17'0 0.2
2017-Sep-18 14:00N 37°14' E 024°17'0 0.3
2017-Sep-18 13:05N 37°14' E 024°17'0 0.4
2017-Sep-18 13:00N 37°14' E 024°17'0 0.3
2017-Sep-18 12:30N 37°14' E 024°16'0 0.2
2017-Sep-18 12:00N 37°14' E 024°16'3 5.6
2017-Sep-18 11:30N 37°14' E 024°20'  
2017-Sep-14 13:55N 37°33' E 023°53'613.3
2017-Sep-14 13:30N 37°36' E 023°48'713.3
2017-Sep-14 13:00N 37°41' E 023°42'714.1
2017-Sep-14 12:30N 37°47' E 023°38'713.3
2017-Sep-14 12:00N 37°54' E 023°37'4 7.3
2017-Sep-14 11:30N 37°57' E 023°36'0 0.4
2017-Sep-14 11:00N 37°58' E 023°37'0 0.0
2017-Sep-14 10:30N 37°58' E 023°37'0 0.0
2017-Sep-14 10:00N 37°58' E 023°37'0 0.0
2017-Sep-14 09:30N 37°58' E 023°37'0 0.0
2017-Sep-14 09:00N 37°58' E 023°37'0 0.0
2017-Sep-14 08:30N 37°58' E 023°37'0 0.0
2017-Sep-14 08:00N 37°58' E 023°37'0 0.0
2017-Sep-14 07:30N 37°58' E 023°37'0 0.0
2017-Sep-14 07:00N 37°58' E 023°37'0 0.0
2017-Sep-14 06:30N 37°58' E 023°37'0 0.0
2017-Sep-14 06:00N 37°58' E 023°37'2 4.1
2017-Sep-14 05:30N 37°56' E 023°37'1 1.4
2017-Sep-14 05:00N 37°55' E 023°36'0 0.8
2017-Sep-14 04:30N 37°55' E 023°36'2 3.0
2017-Sep-14 04:00N 37°55' E 023°34'1 1.6
2017-Sep-14 03:27N 37°55' E 023°33'0 0.0
2017-Sep-14 02:57N 37°55' E 023°33'0 0.0
2017-Sep-14 02:30N 37°55' E 023°33'0 0.0
2017-Sep-14 02:00N 37°55' E 023°33'0 0.0
2017-Sep-14 01:27N 37°55' E 023°33'0 0.0
2017-Sep-14 01:00N 37°55' E 023°33'0 0.0
2017-Sep-14 00:30N 37°55' E 023°33'0 0.0
2017-Sep-13 23:57N 37°55' E 023°33'0 0.1
2017-Sep-13 23:30N 37°55' E 023°33'0 0.0
2017-Sep-13 22:54N 37°55' E 023°33'0 0.0
2017-Sep-13 22:30N 37°55' E 023°33'0 0.1
2017-Sep-13 21:57N 37°55' E 023°33'0 0.1
2017-Sep-13 21:28N 37°55' E 023°33'0 0.2
2017-Sep-13 21:00N 37°55' E 023°33'0 0.0
2017-Sep-13 20:30N 37°55' E 023°33'0 0.0
2017-Sep-13 20:00N 37°55' E 023°33'0 0.0
2017-Sep-13 19:30N 37°55' E 023°33'0 0.1
2017-Sep-13 18:54N 37°55' E 023°33'0 0.1
2017-Sep-13 18:30N 37°55' E 023°33'0 0.1
2017-Sep-13 18:00N 37°55' E 023°33'0 0.0
2017-Sep-13 17:30N 37°55' E 023°33'0 0.0
2017-Sep-13 17:00N 37°55' E 023°33'0 0.1
2017-Sep-13 16:30N 37°55' E 023°33'0 0.0
2017-Sep-13 16:01N 37°55' E 023°33'0 0.0
2017-Sep-13 15:30N 37°55' E 023°33'0 0.0
2017-Sep-13 15:00N 37°55' E 023°33'0 0.0
2017-Sep-13 14:30N 37°55' E 023°33'0 0.0
2017-Sep-13 14:00N 37°55' E 023°33'0 0.1
2017-Sep-13 13:30N 37°55' E 023°33'0 0.0
2017-Sep-13 12:57N 37°55' E 023°33'0 0.1
2017-Sep-13 12:30N 37°55' E 023°33'0 0.1
2017-Sep-13 11:57N 37°55' E 023°33'0 0.1
2017-Sep-13 11:30N 37°55' E 023°33'0 0.0
2017-Sep-13 11:00N 37°55' E 023°33'0 0.0
2017-Sep-13 10:30N 37°55' E 023°33'0 0.0
2017-Sep-13 10:00N 37°55' E 023°33'0 0.1
2017-Sep-13 09:30N 37°55' E 023°33'0 0.1
2017-Sep-13 09:00N 37°55' E 023°33'0 0.1
2017-Sep-13 08:30N 37°55' E 023°33'0 0.0
2017-Sep-13 07:58N 37°55' E 023°33'0 0.0
2017-Sep-13 07:30N 37°55' E 023°33'0 0.0
2017-Sep-13 07:00N 37°55' E 023°33'0 0.1
2017-Sep-13 06:30N 37°55' E 023°33'0 0.1
2017-Sep-13 06:00N 37°55' E 023°33'0 0.1
2017-Sep-13 05:30N 37°55' E 023°33'0 0.1
2017-Sep-13 05:00N 37°55' E 023°33'0 0.1
2017-Sep-13 04:30N 37°55' E 023°33'0 0.0
2017-Sep-13 04:00N 37°55' E 023°33'0 0.0
2017-Sep-13 03:30N 37°55' E 023°33'0 0.0
2017-Sep-13 02:57N 37°55' E 023°33'0 0.0
2017-Sep-13 02:30N 37°55' E 023°33'0 0.0
2017-Sep-13 01:57N 37°55' E 023°33'0 0.1
2017-Sep-13 01:27N 37°55' E 023°33'0 0.1
2017-Sep-13 01:00N 37°55' E 023°33'0 0.1
2017-Sep-13 00:30N 37°55' E 023°33'0 0.1
2017-Sep-13 00:00N 37°55' E 023°33'0 0.0
2017-Sep-12 23:30N 37°55' E 023°33'0 0.0
2017-Sep-12 23:00N 37°55' E 023°33'0 0.1
2017-Sep-12 22:30N 37°55' E 023°33'0 0.0
2017-Sep-12 22:00N 37°55' E 023°33'0 0.1
2017-Sep-12 21:27N 37°55' E 023°33'0 0.0
2017-Sep-12 21:00N 37°55' E 023°33'0 0.1
2017-Sep-12 20:30N 37°55' E 023°33'0 0.0
2017-Sep-12 20:00N 37°55' E 023°33'0 0.0
2017-Sep-12 19:30N 37°55' E 023°33'0 0.0
2017-Sep-12 19:00N 37°55' E 023°33'0 0.1
2017-Sep-12 18:30N 37°55' E 023°33'0 0.1
2017-Sep-12 18:00N 37°55' E 023°33'0 0.2
2017-Sep-12 17:30N 37°55' E 023°33'0 0.0
2017-Sep-12 17:00N 37°55' E 023°33'0 0.0
2017-Sep-12 16:30N 37°55' E 023°33'0 0.0
2017-Sep-12 16:00N 37°55' E 023°33'0 0.0
2017-Sep-12 15:30N 37°55' E 023°33'0 0.1
2017-Sep-12 15:00N 37°55' E 023°33'0 0.0
2017-Sep-12 14:30N 37°55' E 023°33'0 0.1
2017-Sep-12 14:00N 37°55' E 023°33'0 0.1
2017-Sep-12 13:30N 37°55' E 023°33'0 0.1
2017-Sep-12 12:57N 37°55' E 023°33'0 0.1
2017-Sep-12 12:30N 37°55' E 023°33'0 0.0
2017-Sep-12 12:00N 37°55' E 023°33'0 0.1
2017-Sep-12 11:30N 37°55' E 023°33'0 0.0
2017-Sep-12 11:00N 37°55' E 023°33'0 0.1
2017-Sep-12 10:30N 37°55' E 023°33'0 0.1
2017-Sep-12 10:00N 37°55' E 023°33'0 0.1
2017-Sep-12 09:30N 37°55' E 023°33'0 0.1
2017-Sep-12 09:00N 37°55' E 023°33'0 0.1
2017-Sep-12 08:31N 37°55' E 023°33'1 1.2
2017-Sep-12 08:00N 37°54' E 023°33'0 0.0
2017-Sep-12 07:30N 37°54' E 023°33'0 0.0
2017-Sep-12 07:00N 37°54' E 023°33'0 0.0
2017-Sep-12 06:30N 37°54' E 023°33'0 0.0
2017-Sep-12 06:00N 37°54' E 023°33'0 0.0
2017-Sep-12 05:27N 37°54' E 023°33'0 0.0
2017-Sep-12 05:00N 37°54' E 023°33'0 0.1
2017-Sep-12 04:30N 37°55' E 023°33'0 0.0
2017-Sep-12 04:00N 37°55' E 023°33'0 0.1
2017-Sep-12 03:30N 37°54' E 023°33'0 0.1
2017-Sep-12 03:00N 37°54' E 023°33'0 0.0
2017-Sep-12 02:30N 37°55' E 023°33'3 5.8
2017-Sep-12 02:00N 37°53' E 023°36'  
Track history (hours):
 
Tides and Currents Weather Stations Pressure Air Temp Water Temp Dewpoint Dewpoint Depression Visibility Wind Speed Wind Dir Waves Ship Positions

Tinkerbell Mar

Last reported at 2017-Sep-22 01:59 UTC. Time now 2017-Sep-24 17:48 UTC.
Position N 37°54' E 023°33'.

Length 102 m; draft 4.7 m.

Type: Ship. MMSI: 256707000.

Date/timePositionNaut miles runAvg speedWind from/ knotsBaromVisibWave heightAir tempDewpointWater temp
2017-Sep-22 01:59N 37°54' E 023°33'0 0.0
2017-Sep-22 01:29N 37°54' E 023°33'0 0.0
2017-Sep-22 00:59N 37°54' E 023°33'0 0.0
2017-Sep-22 00:29N 37°54' E 023°33'0 0.0
2017-Sep-21 23:59N 37°54' E 023°33'0 0.1
2017-Sep-21 23:29N 37°54' E 023°33'0 0.0
2017-Sep-21 22:59N 37°54' E 023°33'0 0.1
2017-Sep-21 22:23N 37°54' E 023°33'0 0.0
2017-Sep-21 21:59N 37°54' E 023°33'0 0.2
2017-Sep-21 21:29N 37°54' E 023°33'0 0.0
2017-Sep-21 20:59N 37°54' E 023°33'0 0.1
2017-Sep-21 20:29N 37°54' E 023°33'0 0.0
2017-Sep-21 19:59N 37°54' E 023°33'0 0.1
2017-Sep-21 19:29N 37°54' E 023°33'0 0.0
2017-Sep-21 18:59N 37°54' E 023°33'0 0.0
2017-Sep-21 18:29N 37°54' E 023°33'0 0.0
2017-Sep-21 17:59N 37°54' E 023°33'0 0.0
2017-Sep-21 17:29N 37°54' E 023°33'0 0.1
2017-Sep-21 16:59N 37°54' E 023°33'0 0.1
2017-Sep-21 16:29N 37°54' E 023°33'0 0.3
2017-Sep-21 15:56N 37°54' E 023°33'0 0.1
2017-Sep-21 15:29N 37°54' E 023°33'0 0.1
2017-Sep-21 14:59N 37°54' E 023°33'0 0.1
2017-Sep-21 14:29N 37°54' E 023°33'0 0.1
2017-Sep-21 13:59N 37°54' E 023°33'0 0.0
2017-Sep-21 13:29N 37°54' E 023°33'0 0.1
2017-Sep-21 12:59N 37°54' E 023°33'0 0.0
2017-Sep-21 12:29N 37°54' E 023°33'0 0.0
2017-Sep-21 11:59N 37°54' E 023°33'0 0.0
2017-Sep-21 11:29N 37°54' E 023°33'0 0.0
2017-Sep-21 10:59N 37°54' E 023°33'0 0.0
2017-Sep-21 10:29N 37°54' E 023°33'0 0.1
2017-Sep-21 09:59N 37°54' E 023°33'0 0.1
2017-Sep-21 09:29N 37°54' E 023°33'0 0.2
2017-Sep-21 09:00N 37°54' E 023°33'0 0.7
2017-Sep-21 08:30N 37°54' E 023°33'0 0.1
2017-Sep-21 08:00N 37°54' E 023°33'0 0.1
2017-Sep-21 07:30N 37°54' E 023°33'0 0.1
2017-Sep-21 07:00N 37°54' E 023°33'0 0.0
2017-Sep-21 06:30N 37°54' E 023°33'0 0.0
2017-Sep-21 06:00N 37°54' E 023°33'1 1.2
2017-Sep-21 05:31N 37°54' E 023°33'4 8.0
2017-Sep-21 05:00N 37°51' E 023°37'510.6
2017-Sep-21 04:31N 37°47' E 023°41'612.5
2017-Sep-21 04:00N 37°42' E 023°45'612.6
2017-Sep-21 03:31N 37°37' E 023°50'9 0.8
2017-Sep-20 16:08N 37°32' E 023°60'2 1.8
2017-Sep-20 15:13N 37°30' E 024°00'24 2.2
2017-Sep-20 04:16N 37°12' E 024°20'0 1.0
2017-Sep-20 03:53N 37°11' E 024°19'1 1.0
2017-Sep-20 03:05N 37°11' E 024°19'0 1.1
2017-Sep-20 02:59N 37°11' E 024°19'0 0.9
2017-Sep-20 02:30N 37°10' E 024°18'0 0.7
2017-Sep-20 02:00N 37°10' E 024°18'0 0.5
2017-Sep-20 01:30N 37°10' E 024°18'0 0.5
2017-Sep-20 01:00N 37°10' E 024°18'0 0.8
2017-Sep-20 00:30N 37°09' E 024°18'0 0.9
2017-Sep-20 00:00N 37°09' E 024°18'0 0.9
2017-Sep-19 23:31N 37°08' E 024°17'0 0.9
2017-Sep-19 23:01N 37°08' E 024°17'0 0.8
2017-Sep-19 22:30N 37°08' E 024°17'0 0.6
2017-Sep-19 22:00N 37°07' E 024°17'0 0.6
2017-Sep-19 21:30N 37°07' E 024°17'0 0.6
2017-Sep-19 21:00N 37°07' E 024°17'5 5.2
2017-Sep-19 20:02N 37°05' E 024°23'0 0.7
2017-Sep-19 19:50N 37°05' E 024°23'1 0.7
2017-Sep-19 19:06N 37°04' E 024°23'0 0.7
2017-Sep-19 19:00N 37°04' E 024°23'0 0.8
2017-Sep-19 18:30N 37°04' E 024°23'1 0.7
2017-Sep-19 17:21N 37°03' E 024°24'0 0.5
2017-Sep-19 17:00N 37°03' E 024°24'0 0.4
2017-Sep-19 16:23N 37°03' E 024°24'0 0.3
2017-Sep-19 15:52N 37°02' E 024°24'0 0.3
2017-Sep-19 15:30N 37°02' E 024°24'0 0.3
2017-Sep-19 14:46N 37°02' E 024°24'0 0.2
2017-Sep-19 14:31N 37°02' E 024°24'0 0.2
2017-Sep-19 14:00N 37°02' E 024°24'0 0.2
2017-Sep-19 13:30N 37°02' E 024°24'0 0.3
2017-Sep-19 12:54N 37°02' E 024°23'0 0.5
2017-Sep-19 12:31N 37°02' E 024°23'0 0.6
2017-Sep-19 12:00N 37°03' E 024°23'0 0.6
2017-Sep-19 11:30N 37°03' E 024°23'0 0.6
2017-Sep-19 11:00N 37°03' E 024°23'0 0.5
2017-Sep-19 10:01N 37°04' E 024°23'0 0.6
2017-Sep-19 10:00N 37°04' E 024°23'2 0.6
2017-Sep-19 06:47N 37°05' E 024°21'0 0.8
2017-Sep-19 06:29N 37°06' E 024°21'0 0.7
2017-Sep-19 06:00N 37°06' E 024°21'0 0.7
2017-Sep-19 05:30N 37°06' E 024°21'1 0.7
2017-Sep-19 04:02N 37°07' E 024°21'0 0.6
2017-Sep-19 04:00N 37°07' E 024°21'0 0.7
2017-Sep-19 03:30N 37°08' E 024°21'0 0.8
2017-Sep-19 03:00N 37°08' E 024°20'1 0.8
2017-Sep-19 01:52N 37°09' E 024°20'0 0.8
2017-Sep-19 01:30N 37°09' E 024°20'1 0.7
2017-Sep-18 23:48N 37°10' E 024°20'0 0.6
2017-Sep-18 23:22N 37°11' E 024°20'0 0.6
2017-Sep-18 23:00N 37°11' E 024°19'1 0.5
2017-Sep-18 21:10N 37°12' E 024°19'0 0.6
2017-Sep-18 21:00N 37°12' E 024°19'0 0.6
2017-Sep-18 20:18N 37°12' E 024°19'1 0.6
2017-Sep-18 19:26N 37°13' E 024°19'0 0.7
2017-Sep-18 18:58N 37°13' E 024°18'0 0.7
2017-Sep-18 18:31N 37°13' E 024°18'0 0.6
2017-Sep-18 17:59N 37°13' E 024°18'0 0.5
2017-Sep-18 17:31N 37°13' E 024°18'0 0.4
2017-Sep-18 17:00N 37°13' E 024°17'0 0.3
2017-Sep-18 16:30N 37°14' E 024°17'0 0.3
2017-Sep-18 15:59N 37°14' E 024°17'0 0.2
2017-Sep-18 15:30N 37°14' E 024°17'0 0.1
2017-Sep-18 14:58N 37°14' E 024°17'0 0.1
2017-Sep-18 14:17N 37°14' E 024°17'0 0.2
2017-Sep-18 14:00N 37°14' E 024°17'0 0.3
2017-Sep-18 13:05N 37°14' E 024°17'0 0.4
2017-Sep-18 13:00N 37°14' E 024°17'0 0.3
2017-Sep-18 12:30N 37°14' E 024°16'0 0.2
2017-Sep-18 12:00N 37°14' E 024°16'3 5.6
2017-Sep-18 11:30N 37°14' E 024°20'  
2017-Sep-14 13:55N 37°33' E 023°53'613.3
2017-Sep-14 13:30N 37°36' E 023°48'713.3
2017-Sep-14 13:00N 37°41' E 023°42'714.1
2017-Sep-14 12:30N 37°47' E 023°38'713.3
2017-Sep-14 12:00N 37°54' E 023°37'4 7.3
2017-Sep-14 11:30N 37°57' E 023°36'0 0.4
2017-Sep-14 11:00N 37°58' E 023°37'0 0.0
2017-Sep-14 10:30N 37°58' E 023°37'0 0.0
2017-Sep-14 10:00N 37°58' E 023°37'0 0.0
2017-Sep-14 09:30N 37°58' E 023°37'0 0.0
2017-Sep-14 09:00N 37°58' E 023°37'0 0.0
2017-Sep-14 08:30N 37°58' E 023°37'0 0.0
2017-Sep-14 08:00N 37°58' E 023°37'0 0.0
2017-Sep-14 07:30N 37°58' E 023°37'0 0.0
2017-Sep-14 07:00N 37°58' E 023°37'0 0.0
2017-Sep-14 06:30N 37°58' E 023°37'0 0.0
2017-Sep-14 06:00N 37°58' E 023°37'2 4.1
2017-Sep-14 05:30N 37°56' E 023°37'1 1.4
2017-Sep-14 05:00N 37°55' E 023°36'0 0.8
2017-Sep-14 04:30N 37°55' E 023°36'2 3.0
2017-Sep-14 04:00N 37°55' E 023°34'1 1.6
2017-Sep-14 03:27N 37°55' E 023°33'0 0.0
2017-Sep-14 02:57N 37°55' E 023°33'0 0.0
2017-Sep-14 02:30N 37°55' E 023°33'0 0.0
2017-Sep-14 02:00N 37°55' E 023°33'0 0.0
2017-Sep-14 01:27N 37°55' E 023°33'0 0.0
2017-Sep-14 01:00N 37°55' E 023°33'0 0.0
2017-Sep-14 00:30N 37°55' E 023°33'0 0.0
2017-Sep-13 23:57N 37°55' E 023°33'0 0.1
2017-Sep-13 23:30N 37°55' E 023°33'0 0.0
2017-Sep-13 22:54N 37°55' E 023°33'0 0.0
2017-Sep-13 22:30N 37°55' E 023°33'0 0.1
2017-Sep-13 21:57N 37°55' E 023°33'0 0.1
2017-Sep-13 21:28N 37°55' E 023°33'0 0.2
2017-Sep-13 21:00N 37°55' E 023°33'0 0.0
2017-Sep-13 20:30N 37°55' E 023°33'0 0.0
2017-Sep-13 20:00N 37°55' E 023°33'0 0.0
2017-Sep-13 19:30N 37°55' E 023°33'0 0.1
2017-Sep-13 18:54N 37°55' E 023°33'0 0.1
2017-Sep-13 18:30N 37°55' E 023°33'0 0.1
2017-Sep-13 18:00N 37°55' E 023°33'0 0.0
2017-Sep-13 17:30N 37°55' E 023°33'0 0.0
2017-Sep-13 17:00N 37°55' E 023°33'0 0.1
2017-Sep-13 16:30N 37°55' E 023°33'0 0.0
2017-Sep-13 16:01N 37°55' E 023°33'0 0.0
2017-Sep-13 15:30N 37°55' E 023°33'0 0.0
2017-Sep-13 15:00N 37°55' E 023°33'0 0.0
2017-Sep-13 14:30N 37°55' E 023°33'0 0.0
2017-Sep-13 14:00N 37°55' E 023°33'0 0.1
2017-Sep-13 13:30N 37°55' E 023°33'0 0.0
2017-Sep-13 12:57N 37°55' E 023°33'0 0.1
2017-Sep-13 12:30N 37°55' E 023°33'0 0.1
2017-Sep-13 11:57N 37°55' E 023°33'0 0.1
2017-Sep-13 11:30N 37°55' E 023°33'0 0.0
2017-Sep-13 11:00N 37°55' E 023°33'0 0.0
2017-Sep-13 10:30N 37°55' E 023°33'0 0.0
2017-Sep-13 10:00N 37°55' E 023°33'0 0.1
2017-Sep-13 09:30N 37°55' E 023°33'0 0.1
2017-Sep-13 09:00N 37°55' E 023°33'0 0.1
2017-Sep-13 08:30N 37°55' E 023°33'0 0.0
2017-Sep-13 07:58N 37°55' E 023°33'0 0.0
2017-Sep-13 07:30N 37°55' E 023°33'0 0.0
2017-Sep-13 07:00N 37°55' E 023°33'0 0.1
2017-Sep-13 06:30N 37°55' E 023°33'0 0.1
2017-Sep-13 06:00N 37°55' E 023°33'0 0.1
2017-Sep-13 05:30N 37°55' E 023°33'0 0.1
2017-Sep-13 05:00N 37°55' E 023°33'0 0.1
2017-Sep-13 04:30N 37°55' E 023°33'0 0.0
2017-Sep-13 04:00N 37°55' E 023°33'0 0.0
2017-Sep-13 03:30N 37°55' E 023°33'0 0.0
2017-Sep-13 02:57N 37°55' E 023°33'0 0.0
2017-Sep-13 02:30N 37°55' E 023°33'0 0.0
2017-Sep-13 01:57N 37°55' E 023°33'0 0.1
2017-Sep-13 01:27N 37°55' E 023°33'0 0.1
2017-Sep-13 01:00N 37°55' E 023°33'0 0.1
2017-Sep-13 00:30N 37°55' E 023°33'0 0.1
2017-Sep-13 00:00N 37°55' E 023°33'0 0.0
2017-Sep-12 23:30N 37°55' E 023°33'0 0.0
2017-Sep-12 23:00N 37°55' E 023°33'0 0.1
2017-Sep-12 22:30N 37°55' E 023°33'0 0.0
2017-Sep-12 22:00N 37°55' E 023°33'0 0.1
2017-Sep-12 21:27N 37°55' E 023°33'0 0.0
2017-Sep-12 21:00N 37°55' E 023°33'0 0.1
2017-Sep-12 20:30N 37°55' E 023°33'0 0.0
2017-Sep-12 20:00N 37°55' E 023°33'0 0.0
2017-Sep-12 19:30N 37°55' E 023°33'0 0.0
2017-Sep-12 19:00N 37°55' E 023°33'0 0.1
2017-Sep-12 18:30N 37°55' E 023°33'0 0.1
2017-Sep-12 18:00N 37°55' E 023°33'0 0.2
2017-Sep-12 17:30N 37°55' E 023°33'0 0.0
2017-Sep-12 17:00N 37°55' E 023°33'0 0.0
2017-Sep-12 16:30N 37°55' E 023°33'0 0.0
2017-Sep-12 16:00N 37°55' E 023°33'0 0.0
2017-Sep-12 15:30N 37°55' E 023°33'0 0.1
2017-Sep-12 15:00N 37°55' E 023°33'0 0.0
2017-Sep-12 14:30N 37°55' E 023°33'0 0.1
2017-Sep-12 14:00N 37°55' E 023°33'0 0.1
2017-Sep-12 13:30N 37°55' E 023°33'0 0.1
2017-Sep-12 12:57N 37°55' E 023°33'0 0.1
2017-Sep-12 12:30N 37°55' E 023°33'0 0.0
2017-Sep-12 12:00N 37°55' E 023°33'0 0.1
2017-Sep-12 11:30N 37°55' E 023°33'0 0.0
2017-Sep-12 11:00N 37°55' E 023°33'0 0.1
2017-Sep-12 10:30N 37°55' E 023°33'0 0.1
2017-Sep-12 10:00N 37°55' E 023°33'0 0.1
2017-Sep-12 09:30N 37°55' E 023°33'0 0.1
2017-Sep-12 09:00N 37°55' E 023°33'0 0.1
2017-Sep-12 08:31N 37°55' E 023°33'1 1.2
2017-Sep-12 08:00N 37°54' E 023°33'0 0.0
2017-Sep-12 07:30N 37°54' E 023°33'0 0.0
2017-Sep-12 07:00N 37°54' E 023°33'0 0.0
2017-Sep-12 06:30N 37°54' E 023°33'0 0.0
2017-Sep-12 06:00N 37°54' E 023°33'0 0.0
2017-Sep-12 05:27N 37°54' E 023°33'0 0.0
2017-Sep-12 05:00N 37°54' E 023°33'0 0.1
2017-Sep-12 04:30N 37°55' E 023°33'0 0.0
2017-Sep-12 04:00N 37°55' E 023°33'0 0.1
2017-Sep-12 03:30N 37°54' E 023°33'0 0.1
2017-Sep-12 03:00N 37°54' E 023°33'0 0.0
2017-Sep-12 02:30N 37°55' E 023°33'3 5.8
2017-Sep-12 02:00N 37°53' E 023°36'  

Dump ship's entire track history